createdAt,value
2018-09-22T00:00:14.438Z,12.60
2018-09-22T00:01:14.437Z,12.57
2018-09-22T00:02:14.413Z,12.60
2018-09-22T00:03:14.404Z,12.60
2018-09-22T00:04:14.390Z,12.67
2018-09-22T00:05:14.404Z,12.67
2018-09-22T00:06:14.373Z,12.70
2018-09-22T00:07:14.358Z,12.80
2018-09-22T00:08:14.348Z,12.79
2018-09-22T00:09:14.342Z,12.65
2018-09-22T00:10:14.345Z,12.64
2018-09-22T00:11:14.318Z,12.64
2018-09-22T00:12:14.351Z,12.60
2018-09-22T00:13:14.293Z,12.54
2018-09-22T00:14:14.282Z,12.43
2018-09-22T00:15:14.291Z,12.57
2018-09-22T00:16:14.276Z,12.62
2018-09-22T00:17:14.256Z,12.46
2018-09-22T00:18:14.243Z,12.31
2018-09-22T00:19:14.234Z,12.35
2018-09-22T00:20:14.245Z,12.21
2018-09-22T00:21:14.223Z,12.10
2018-09-22T00:22:14.197Z,12.07
2018-09-22T00:23:14.187Z,12.13
2018-09-22T00:24:14.178Z,12.15
2018-09-22T00:25:14.180Z,11.95
2018-09-22T00:26:14.149Z,11.91
2018-09-22T00:27:14.196Z,11.77
2018-09-22T00:28:14.129Z,11.69
2018-09-22T00:29:14.141Z,11.60
2018-09-22T00:30:14.111Z,11.57
2018-09-22T00:31:14.100Z,11.50
2018-09-22T00:32:14.094Z,11.47
2018-09-22T00:33:14.074Z,11.51
2018-09-22T00:34:14.090Z,11.52
2018-09-22T00:35:14.054Z,11.55
2018-09-22T00:36:14.044Z,11.55
2018-09-22T00:37:14.044Z,11.44
2018-09-22T00:38:14.023Z,11.33
2018-09-22T00:39:14.010Z,11.14
2018-09-22T00:40:14.015Z,11.22
2018-09-22T00:41:14.019Z,11.11
2018-09-22T00:42:13.983Z,10.99
2018-09-22T00:43:13.970Z,10.87
2018-09-22T00:44:13.962Z,10.78
2018-09-22T00:45:13.943Z,10.72
2018-09-22T00:46:13.952Z,10.63
2018-09-22T00:47:13.924Z,10.69
2018-09-22T00:48:13.917Z,10.71
2018-09-22T00:49:13.907Z,10.63
2018-09-22T00:50:13.912Z,10.61
2018-09-22T00:51:13.883Z,10.64
2018-09-22T00:52:13.895Z,10.68
2018-09-22T00:53:13.857Z,10.54
2018-09-22T00:54:13.858Z,10.57
2018-09-22T00:55:13.848Z,10.48
2018-09-22T00:56:13.832Z,10.41
2018-09-22T00:57:13.835Z,10.35
2018-09-22T00:58:13.808Z,10.38
2018-09-22T00:59:13.799Z,10.30
2018-09-22T01:00:13.782Z,10.26
2018-09-22T01:01:13.781Z,10.25
2018-09-22T01:02:13.789Z,10.12
2018-09-22T01:03:13.761Z,10.19
2018-09-22T01:04:13.752Z,10.10
2018-09-22T01:05:13.730Z,10.05
2018-09-22T01:06:13.720Z,10.09
2018-09-22T01:07:13.710Z,9.97
2018-09-22T01:08:13.713Z,10.02
2018-09-22T01:09:13.697Z,10.10
2018-09-22T01:10:13.705Z,10.05
2018-09-22T01:11:13.668Z,9.95
2018-09-22T01:12:13.653Z,10.02
2018-09-22T01:13:13.648Z,10.05
2018-09-22T01:14:13.638Z,9.98
2018-09-22T01:15:13.648Z,10.01
2018-09-22T01:16:13.622Z,9.94
2018-09-22T01:17:13.599Z,9.95
2018-09-22T01:18:13.614Z,9.87
2018-09-22T01:19:13.587Z,9.80
2018-09-22T01:20:13.566Z,9.82
2018-09-22T01:21:13.564Z,9.87
2018-09-22T01:22:13.549Z,9.91
2018-09-22T01:23:13.537Z,9.83
2018-09-22T01:24:13.557Z,9.84
2018-09-22T01:25:13.515Z,9.86
2018-09-22T01:26:13.503Z,9.95
2018-09-22T01:27:13.498Z,9.98
2018-09-22T01:28:13.496Z,10.02
2018-09-22T01:29:13.471Z,10.10
2018-09-22T01:30:13.487Z,9.92
2018-09-22T01:31:13.449Z,10.05
2018-09-22T01:32:13.436Z,10.09
2018-09-22T01:33:13.434Z,10.04
2018-09-22T01:34:13.420Z,10.05
2018-09-22T01:35:13.416Z,10.13
2018-09-22T01:36:13.420Z,10.12
2018-09-22T01:37:13.388Z,10.20
2018-09-22T01:38:13.378Z,10.10
2018-09-22T01:39:13.368Z,10.16
2018-09-22T01:40:13.355Z,10.19
2018-09-22T01:41:13.345Z,10.15
2018-09-22T01:42:13.351Z,10.19
2018-09-22T01:43:13.329Z,10.17
2018-09-22T01:44:13.311Z,10.22
2018-09-22T01:45:13.315Z,10.16
2018-09-22T01:46:13.288Z,10.15
2018-09-22T01:47:13.286Z,10.38
2018-09-22T01:48:13.268Z,10.28
2018-09-22T01:49:13.262Z,10.35
2018-09-22T01:50:13.283Z,10.31
2018-09-22T01:51:13.239Z,10.46
2018-09-22T01:52:13.226Z,10.41
2018-09-22T01:53:13.212Z,10.35
2018-09-22T01:54:13.200Z,10.40
2018-09-22T01:55:13.198Z,10.38
2018-09-22T01:56:13.201Z,10.35
2018-09-22T01:57:13.195Z,10.44
2018-09-22T01:58:13.207Z,10.46
2018-09-22T01:59:13.146Z,10.54
2018-09-22T02:00:13.160Z,10.53
2018-09-22T02:01:13.129Z,10.46
2018-09-22T02:02:13.120Z,10.38
2018-09-22T02:03:13.130Z,10.38
2018-09-22T02:04:13.096Z,10.40
2018-09-22T02:05:13.101Z,10.34
2018-09-22T02:06:13.070Z,10.31
2018-09-22T02:07:13.059Z,10.31
2018-09-22T02:08:13.053Z,10.31
2018-09-22T02:09:13.041Z,10.35
2018-09-22T02:10:13.055Z,10.37
2018-09-22T02:11:13.032Z,10.44
2018-09-22T02:12:13.011Z,10.35
2018-09-22T02:13:13.032Z,10.31
2018-09-22T02:14:12.985Z,10.41
2018-09-22T02:15:12.980Z,10.38
2018-09-22T02:16:12.966Z,10.38
2018-09-22T02:17:12.953Z,10.40
2018-09-22T02:18:12.973Z,10.28
2018-09-22T02:19:12.931Z,10.25
2018-09-22T02:20:12.947Z,10.26
2018-09-22T02:21:12.913Z,10.23
2018-09-22T02:22:12.905Z,10.19
2018-09-22T02:23:12.905Z,10.19
2018-09-22T02:24:12.883Z,10.22
2018-09-22T02:25:12.866Z,10.22
2018-09-22T02:26:12.873Z,10.23
2018-09-22T02:27:12.845Z,10.33
2018-09-22T02:28:12.834Z,10.22
2018-09-22T02:29:12.833Z,10.10
2018-09-22T02:30:12.837Z,10.15
2018-09-22T02:31:12.802Z,10.10
2018-09-22T02:32:12.788Z,10.07
2018-09-22T02:33:12.824Z,10.09
2018-09-22T02:34:12.771Z,10.02
2018-09-22T02:35:12.762Z,10.07
2018-09-22T02:36:12.754Z,10.17
2018-09-22T02:37:12.735Z,10.15
2018-09-22T02:38:12.726Z,10.15
2018-09-22T02:39:12.742Z,10.20
2018-09-22T02:40:12.702Z,10.28
2018-09-22T02:41:12.698Z,10.31
2018-09-22T02:42:12.690Z,10.16
2018-09-22T02:43:12.684Z,10.22
2018-09-22T02:44:12.675Z,10.34
2018-09-22T02:45:12.670Z,10.28
2018-09-22T02:46:12.640Z,10.33
2018-09-22T02:47:12.631Z,10.20
2018-09-22T02:48:12.641Z,10.16
2018-09-22T02:49:12.605Z,10.15
2018-09-22T02:50:12.625Z,10.04
2018-09-22T02:51:12.588Z,9.99
2018-09-22T02:52:12.573Z,9.97
2018-09-22T02:53:12.572Z,10.05
2018-09-22T02:54:12.557Z,10.05
2018-09-22T02:55:12.544Z,10.05
2018-09-22T02:56:12.563Z,10.02
2018-09-22T02:57:12.519Z,9.98
2018-09-22T02:58:12.512Z,9.98
2018-09-22T02:59:12.499Z,9.99
2018-09-22T03:00:12.489Z,10.01
2018-09-22T03:01:12.491Z,9.99
2018-09-22T03:02:12.489Z,10.04
2018-09-22T03:03:12.474Z,9.99
2018-09-22T03:04:12.448Z,9.99
2018-09-22T03:05:12.458Z,10.01
2018-09-22T03:06:12.426Z,10.07
2018-09-22T03:07:12.415Z,10.04
2018-09-22T03:08:12.423Z,10.10
2018-09-22T03:09:12.391Z,10.04
2018-09-22T03:10:12.407Z,10.10
2018-09-22T03:11:12.374Z,10.01
2018-09-22T03:12:12.356Z,10.12
2018-09-22T03:13:12.372Z,10.07
2018-09-22T03:14:12.342Z,10.07
2018-09-22T03:15:12.335Z,10.15
2018-09-22T03:16:12.321Z,10.23
2018-09-22T03:17:12.308Z,10.22
2018-09-22T03:18:12.312Z,10.16
2018-09-22T03:19:12.324Z,10.05
2018-09-22T03:20:12.294Z,10.01
2018-09-22T03:21:12.262Z,10.05
2018-09-22T03:22:12.252Z,10.07
2018-09-22T03:23:12.240Z,10.09
2018-09-22T03:24:12.227Z,10.07
2018-09-22T03:25:12.240Z,10.04
2018-09-22T03:26:12.210Z,10.07
2018-09-22T03:27:12.201Z,9.95
2018-09-22T03:28:12.191Z,9.97
2018-09-22T03:29:12.193Z,10.16
2018-09-22T03:30:12.188Z,10.16
2018-09-22T03:31:12.160Z,10.12
2018-09-22T03:32:12.141Z,10.17
2018-09-22T03:33:12.138Z,10.07
2018-09-22T03:34:12.151Z,10.16
2018-09-22T03:35:12.111Z,10.15
2018-09-22T03:36:12.099Z,10.16
2018-09-22T03:37:12.093Z,10.12
2018-09-22T03:38:12.081Z,10.02
2018-09-22T03:39:12.074Z,10.09
2018-09-22T03:40:12.080Z,10.07
2018-09-22T03:41:12.046Z,9.98
2018-09-22T03:42:12.044Z,10.02
2018-09-22T03:43:12.026Z,10.01
2018-09-22T03:44:12.029Z,9.99
2018-09-22T03:45:12.036Z,9.94
2018-09-22T03:46:11.995Z,9.98
2018-09-22T03:47:11.984Z,9.99
2018-09-22T03:48:11.976Z,9.95
2018-09-22T03:49:11.975Z,10.07
2018-09-22T03:50:11.948Z,9.99
2018-09-22T03:51:11.942Z,10.01
2018-09-22T03:52:11.932Z,9.95
2018-09-22T03:53:11.915Z,9.91
2018-09-22T03:54:11.923Z,9.89
2018-09-22T03:55:11.901Z,9.95
2018-09-22T03:56:11.882Z,9.91
2018-09-22T03:57:11.879Z,9.83
2018-09-22T03:58:11.868Z,9.74
2018-09-22T03:59:11.872Z,9.80
2018-09-22T04:00:11.850Z,9.72
2018-09-22T04:01:11.832Z,9.61
2018-09-22T04:02:11.820Z,9.76
2018-09-22T04:03:11.809Z,9.68
2018-09-22T04:04:11.815Z,9.82
2018-09-22T04:05:11.792Z,9.69
2018-09-22T04:06:11.796Z,9.72
2018-09-22T04:07:11.766Z,9.79
2018-09-22T04:08:11.756Z,9.89
2018-09-22T04:09:11.778Z,9.82
2018-09-22T04:10:11.736Z,9.83
2018-09-22T04:11:11.728Z,9.86
2018-09-22T04:12:11.722Z,9.66
2018-09-22T04:13:11.700Z,9.68
2018-09-22T04:14:11.714Z,9.65
2018-09-22T04:15:11.680Z,9.68
2018-09-22T04:16:11.680Z,9.73
2018-09-22T04:17:11.663Z,9.68
2018-09-22T04:18:11.649Z,9.77
2018-09-22T04:19:11.639Z,9.68
2018-09-22T04:20:11.656Z,9.74
2018-09-22T04:21:11.612Z,9.62
2018-09-22T04:22:11.606Z,9.72
2018-09-22T04:23:11.598Z,9.69
2018-09-22T04:24:11.587Z,9.65
2018-09-22T04:25:11.576Z,9.69
2018-09-22T04:26:11.580Z,9.73
2018-09-22T04:27:11.550Z,9.69
2018-09-22T04:28:11.538Z,9.72
2018-09-22T04:29:11.537Z,9.59
2018-09-22T04:30:11.525Z,9.68
2018-09-22T04:31:11.529Z,9.65
2018-09-22T04:32:11.501Z,9.61
2018-09-22T04:33:11.539Z,9.72
2018-09-22T04:34:11.475Z,9.68
2018-09-22T04:35:11.464Z,9.69
2018-09-22T04:36:11.469Z,9.64
2018-09-22T04:37:11.448Z,9.62
2018-09-22T04:38:11.454Z,9.69
2018-09-22T04:39:11.424Z,9.69
2018-09-22T04:40:11.425Z,9.66
2018-09-22T04:41:11.406Z,9.72
2018-09-22T04:42:11.390Z,9.65
2018-09-22T04:43:11.380Z,9.65
2018-09-22T04:44:11.371Z,9.72
2018-09-22T04:45:11.382Z,9.74
2018-09-22T04:46:11.345Z,9.68
2018-09-22T04:47:11.334Z,9.68
2018-09-22T04:48:11.321Z,9.79
2018-09-22T04:49:11.317Z,9.83
2018-09-22T04:50:11.316Z,9.95
2018-09-22T04:51:11.319Z,9.92
2018-09-22T04:52:11.284Z,9.91
2018-09-22T04:53:11.267Z,9.98
2018-09-22T04:54:11.258Z,9.94
2018-09-22T04:55:11.251Z,9.94
2018-09-22T04:56:11.258Z,9.82
2018-09-22T04:57:11.223Z,9.82
2018-09-22T04:58:11.230Z,9.80
2018-09-22T04:59:11.212Z,9.80
2018-09-22T05:00:11.191Z,9.74
2018-09-22T05:01:11.208Z,9.82
2018-09-22T05:02:11.190Z,9.82
2018-09-22T05:03:11.163Z,9.83
2018-09-22T05:04:11.161Z,9.74
2018-09-22T05:05:11.138Z,9.68
2018-09-22T05:06:11.154Z,9.79
2018-09-22T05:07:11.121Z,9.83
2018-09-22T05:08:11.109Z,9.84
2018-09-22T05:09:11.101Z,9.87
2018-09-22T05:10:11.110Z,9.79
2018-09-22T05:11:11.094Z,9.82
2018-09-22T05:12:11.077Z,9.86
2018-09-22T05:13:11.055Z,9.84
2018-09-22T05:14:11.045Z,9.92
2018-09-22T05:15:11.049Z,9.89
2018-09-22T05:16:11.026Z,9.91
2018-09-22T05:17:11.072Z,9.80
2018-09-22T05:18:11.028Z,9.91
2018-09-22T05:19:11.019Z,9.89
2018-09-22T05:20:11.038Z,9.92
2018-09-22T05:21:10.969Z,9.97
2018-09-22T05:22:10.964Z,9.97
2018-09-22T05:23:10.963Z,10.07
2018-09-22T05:24:10.936Z,10.15
2018-09-22T05:25:10.923Z,10.12
2018-09-22T05:26:10.937Z,10.05
2018-09-22T05:27:10.909Z,10.02
2018-09-22T05:28:10.905Z,10.15
2018-09-22T05:29:10.884Z,10.10
2018-09-22T05:30:10.869Z,10.23
2018-09-22T05:31:10.876Z,10.16
2018-09-22T05:32:10.844Z,10.22
2018-09-22T05:33:10.840Z,10.19
2018-09-22T05:34:10.828Z,10.13
2018-09-22T05:35:10.819Z,10.15
2018-09-22T05:36:10.836Z,10.25
2018-09-22T05:37:10.818Z,10.19
2018-09-22T05:38:10.782Z,10.20
2018-09-22T05:39:10.771Z,10.22
2018-09-22T05:40:10.769Z,10.22
2018-09-22T05:41:10.759Z,10.13
2018-09-22T05:42:10.741Z,10.19
2018-09-22T05:43:10.756Z,10.15
2018-09-22T05:44:10.716Z,10.07
2018-09-22T05:45:10.710Z,10.15
2018-09-22T05:46:10.697Z,10.22
2018-09-22T05:47:10.691Z,10.23
2018-09-22T05:48:10.678Z,10.23
2018-09-22T05:49:10.683Z,10.33
2018-09-22T05:50:10.657Z,10.30
2018-09-22T05:51:10.641Z,10.23
2018-09-22T05:52:10.633Z,10.30
2018-09-22T05:53:10.623Z,10.42
2018-09-22T05:54:10.611Z,10.35
2018-09-22T05:55:10.618Z,10.38
2018-09-22T05:56:10.598Z,10.37
2018-09-22T05:57:10.591Z,10.34
2018-09-22T05:58:10.638Z,10.38
2018-09-22T05:59:10.558Z,10.40
2018-09-22T06:00:10.555Z,10.48
2018-09-22T06:01:10.530Z,10.51
2018-09-22T06:02:10.563Z,10.41
2018-09-22T06:03:10.514Z,10.44
2018-09-22T06:04:10.498Z,10.48
2018-09-22T06:05:10.494Z,10.56
2018-09-22T06:06:10.501Z,10.56
2018-09-22T06:07:10.513Z,10.51
2018-09-22T06:08:10.463Z,10.48
2018-09-22T06:09:10.445Z,10.48
2018-09-22T06:10:10.442Z,10.48
2018-09-22T06:11:10.443Z,10.46
2018-09-22T06:12:10.419Z,10.48
2018-09-22T06:13:10.409Z,10.48
2018-09-22T06:14:10.398Z,10.46
2018-09-22T06:15:10.389Z,10.51
2018-09-22T06:16:10.386Z,10.53
2018-09-22T06:17:10.365Z,10.51
2018-09-22T06:18:10.351Z,10.49
2018-09-22T06:19:10.342Z,10.46
2018-09-22T06:20:10.335Z,10.54
2018-09-22T06:21:10.375Z,10.56
2018-09-22T06:22:10.320Z,10.59
2018-09-22T06:23:10.338Z,10.63
2018-09-22T06:24:10.283Z,10.74
2018-09-22T06:25:10.284Z,10.79
2018-09-22T06:26:10.305Z,10.87
2018-09-22T06:27:10.255Z,10.93
2018-09-22T06:28:10.246Z,10.99
2018-09-22T06:29:10.296Z,11.05
2018-09-22T06:30:10.274Z,10.97
2018-09-22T06:31:10.315Z,11.05
2018-09-22T06:32:10.219Z,11.02
2018-09-22T06:33:10.188Z,11.08
2018-09-22T06:34:10.207Z,11.15
2018-09-22T06:35:10.170Z,11.04
2018-09-22T06:36:10.177Z,11.11
2018-09-22T06:37:10.153Z,11.02
2018-09-22T06:38:10.137Z,11.00
2018-09-22T06:39:10.127Z,10.97
2018-09-22T06:40:10.511Z,11.10
2018-09-22T06:41:11.583Z,11.08
2018-09-22T06:42:10.962Z,11.00
2018-09-22T06:43:10.911Z,10.99
2018-09-22T06:44:11.034Z,11.00
2018-09-22T06:45:10.939Z,11.04
2018-09-22T06:46:12.656Z,11.04
2018-09-22T06:47:10.906Z,11.04
2018-09-22T06:48:10.691Z,11.05
2018-09-22T06:49:11.172Z,11.04
2018-09-22T06:50:10.751Z,11.19
2018-09-22T06:51:12.469Z,11.27
2018-09-22T06:52:10.759Z,11.29
2018-09-22T06:53:11.118Z,11.35
2018-09-22T06:54:10.693Z,11.36
2018-09-22T06:55:11.113Z,11.57
2018-09-22T06:56:11.831Z,11.54
2018-09-22T06:57:10.353Z,11.50
2018-09-22T06:58:10.718Z,11.51
2018-09-22T06:59:10.722Z,11.60
2018-09-22T07:00:10.649Z,11.62
2018-09-22T07:01:11.283Z,11.62
2018-09-22T07:02:11.116Z,11.70
2018-09-22T07:03:11.147Z,11.70
2018-09-22T07:04:10.493Z,11.77
2018-09-22T07:05:10.579Z,11.86
2018-09-22T07:06:12.596Z,11.81
2018-09-22T07:07:09.817Z,11.86
2018-09-22T07:08:09.807Z,11.90
2018-09-22T07:09:09.799Z,11.88
2018-09-22T07:10:09.791Z,11.91
2018-09-22T07:11:09.808Z,11.95
2018-09-22T07:12:09.766Z,11.86
2018-09-22T07:13:09.779Z,11.90
2018-09-22T07:14:09.766Z,11.99
2018-09-22T07:15:09.728Z,12.02
2018-09-22T07:16:09.743Z,12.07
2018-09-22T07:17:09.742Z,12.12
2018-09-22T07:18:09.703Z,12.20
2018-09-22T07:19:09.686Z,12.18
2018-09-22T07:20:09.683Z,12.22
2018-09-22T07:21:09.678Z,12.20
2018-09-22T07:22:09.660Z,12.20
2018-09-22T07:23:09.666Z,12.27
2018-09-22T07:24:09.636Z,12.21
2018-09-22T07:25:09.628Z,12.28
2018-09-22T07:26:09.639Z,12.31
2018-09-22T07:27:09.602Z,12.39
2018-09-22T07:28:09.591Z,12.46
2018-09-22T07:29:09.582Z,12.46
2018-09-22T07:30:09.584Z,12.60
2018-09-22T07:31:09.581Z,12.82
2018-09-22T07:32:09.550Z,12.82
2018-09-22T07:33:09.557Z,12.91
2018-09-22T07:34:09.524Z,12.94
2018-09-22T07:35:09.522Z,13.00
2018-09-22T07:36:09.524Z,13.03
2018-09-22T07:37:09.493Z,13.03
2018-09-22T07:38:09.485Z,12.97
2018-09-22T07:39:09.491Z,13.11
2018-09-22T07:40:09.472Z,13.08
2018-09-22T07:41:09.483Z,13.01
2018-09-22T07:42:09.461Z,13.01
2018-09-22T07:43:09.444Z,12.98
2018-09-22T07:44:09.443Z,12.97
2018-09-22T07:45:09.414Z,12.95
2018-09-22T07:46:09.399Z,13.00
2018-09-22T07:47:09.393Z,13.05
2018-09-22T07:48:09.378Z,13.19
2018-09-22T07:49:09.396Z,13.18
2018-09-22T07:50:09.359Z,13.25
2018-09-22T07:51:09.338Z,13.30
2018-09-22T07:52:09.334Z,13.28
2018-09-22T07:53:09.323Z,13.25
2018-09-22T07:54:09.330Z,13.23
2018-09-22T07:55:09.830Z,13.35
2018-09-22T07:56:09.315Z,13.38
2018-09-22T07:57:09.344Z,13.38
2018-09-22T07:58:09.267Z,13.53
2018-09-22T07:59:09.280Z,13.52
2018-09-22T08:00:09.248Z,13.59
2018-09-22T08:01:09.279Z,13.77
2018-09-22T08:02:09.285Z,13.68
2018-09-22T08:03:09.214Z,13.65
2018-09-22T08:04:09.264Z,13.71
2018-09-22T08:05:09.190Z,13.75
2018-09-22T08:06:09.194Z,13.83
2018-09-22T08:07:09.193Z,13.77
2018-09-22T08:08:09.196Z,13.83
2018-09-22T08:09:09.156Z,13.70
2018-09-22T08:10:09.133Z,13.57
2018-09-22T08:11:09.141Z,13.53
2018-09-22T08:12:09.115Z,13.52
2018-09-22T08:13:09.108Z,13.47
2018-09-22T08:14:09.115Z,13.53
2018-09-22T08:15:09.086Z,13.44
2018-09-22T08:16:09.092Z,13.57
2018-09-22T08:17:09.070Z,13.62
2018-09-22T08:18:09.048Z,13.62
2018-09-22T08:19:09.079Z,13.65
2018-09-22T08:20:09.028Z,13.59
2018-09-22T08:21:09.021Z,13.35
2018-09-22T08:22:09.012Z,13.38
2018-09-22T08:23:08.993Z,13.37
2018-09-22T08:24:08.985Z,13.41
2018-09-22T08:25:09.021Z,13.41
2018-09-22T08:26:08.979Z,13.38
2018-09-22T08:27:08.988Z,13.46
2018-09-22T08:28:08.959Z,13.60
2018-09-22T08:29:08.975Z,13.72
2018-09-22T08:30:08.921Z,13.96
2018-09-22T08:31:08.935Z,14.10
2018-09-22T08:32:09.333Z,14.22
2018-09-22T08:33:08.891Z,14.30
2018-09-22T08:34:08.888Z,14.33
2018-09-22T08:35:08.889Z,14.35
2018-09-22T08:36:09.037Z,14.36
2018-09-22T08:37:09.148Z,14.33
2018-09-22T08:38:08.837Z,14.53
2018-09-22T08:39:08.829Z,14.63
2018-09-22T08:40:08.825Z,14.62
2018-09-22T08:41:08.800Z,14.63
2018-09-22T08:42:08.807Z,14.54
2018-09-22T08:43:08.776Z,14.54
2018-09-22T08:44:08.773Z,14.50
2018-09-22T08:45:08.783Z,14.45
2018-09-22T08:46:08.769Z,14.54
2018-09-22T08:47:08.747Z,14.63
2018-09-22T08:48:08.737Z,14.65
2018-09-22T08:49:08.748Z,14.62
2018-09-22T08:50:08.777Z,14.68
2018-09-22T08:51:08.701Z,14.59
2018-09-22T08:52:08.683Z,14.66
2018-09-22T08:53:08.679Z,14.79
2018-09-22T08:54:08.682Z,14.91
2018-09-22T08:55:08.652Z,14.84
2018-09-22T08:56:08.657Z,14.81
2018-09-22T08:57:08.635Z,14.92
2018-09-22T08:58:08.631Z,14.97
2018-09-22T08:59:08.616Z,15.25
2018-09-22T09:00:08.630Z,15.39
2018-09-22T09:01:08.584Z,15.44
2018-09-22T09:02:08.571Z,15.55
2018-09-22T09:03:10.168Z,15.47
2018-09-22T09:04:08.551Z,15.67
2018-09-22T09:05:08.565Z,15.82
2018-09-22T09:06:08.553Z,16.04
2018-09-22T09:07:08.527Z,16.05
2018-09-22T09:08:08.511Z,16.10
2018-09-22T09:09:08.503Z,16.01
2018-09-22T09:10:08.509Z,15.92
2018-09-22T09:11:08.505Z,15.84
2018-09-22T09:12:08.467Z,15.79
2018-09-22T09:13:08.478Z,15.84
2018-09-22T09:14:08.512Z,15.79
2018-09-22T09:15:08.452Z,15.80
2018-09-22T09:16:08.427Z,15.90
2018-09-22T09:17:08.450Z,15.82
2018-09-22T09:18:08.449Z,15.73
2018-09-22T09:19:08.393Z,15.83
2018-09-22T09:20:08.399Z,15.68
2018-09-22T09:21:08.372Z,15.52
2018-09-22T09:22:08.367Z,15.57
2018-09-22T09:23:08.345Z,15.59
2018-09-22T09:24:08.342Z,15.59
2018-09-22T09:25:08.344Z,15.47
2018-09-22T09:26:08.321Z,15.59
2018-09-22T09:27:08.301Z,15.67
2018-09-22T09:28:08.309Z,15.62
2018-09-22T09:29:08.284Z,15.57
2018-09-22T09:30:08.275Z,15.55
2018-09-22T09:31:08.305Z,15.54
2018-09-22T09:32:08.253Z,15.68
2018-09-22T09:33:08.237Z,15.70
2018-09-22T09:34:08.226Z,15.75
2018-09-22T09:35:08.216Z,15.65
2018-09-22T09:36:08.230Z,15.77
2018-09-22T09:37:08.283Z,15.84
2018-09-22T09:38:08.238Z,15.79
2018-09-22T09:39:08.257Z,15.92
2018-09-22T09:40:08.202Z,15.88
2018-09-22T09:41:08.152Z,15.91
2018-09-22T09:42:08.169Z,16.02
2018-09-22T09:43:08.202Z,16.10
2018-09-22T09:44:08.202Z,16.32
2018-09-22T09:45:08.119Z,16.46
2018-09-22T09:46:08.120Z,16.66
2018-09-22T09:47:08.091Z,16.49
2018-09-22T09:48:08.080Z,16.57
2018-09-22T09:49:08.068Z,16.68
2018-09-22T09:50:08.058Z,16.64
2018-09-22T09:51:08.075Z,16.65
2018-09-22T09:52:08.046Z,16.84
2018-09-22T09:53:08.045Z,16.76
2018-09-22T09:54:08.026Z,16.74
2018-09-22T09:55:08.005Z,16.65
2018-09-22T09:56:07.991Z,16.53
2018-09-22T09:57:08.005Z,16.56
2018-09-22T09:58:07.972Z,16.64
2018-09-22T09:59:07.956Z,16.81
2018-09-22T10:00:07.950Z,16.87
2018-09-22T10:01:07.937Z,16.83
2018-09-22T10:02:07.989Z,16.75
2018-09-22T10:03:08.847Z,16.56
2018-09-22T10:04:08.051Z,16.54
2018-09-22T10:05:07.915Z,16.81
2018-09-22T10:06:07.968Z,16.79
2018-09-22T10:07:07.868Z,16.72
2018-09-22T10:08:07.865Z,16.51
2018-09-22T10:09:07.877Z,16.60
2018-09-22T10:10:08.016Z,16.71
2018-09-22T10:11:07.831Z,16.83
2018-09-22T10:12:07.819Z,16.91
2018-09-22T10:13:07.825Z,17.04
2018-09-22T10:14:07.822Z,17.04
2018-09-22T10:15:07.809Z,16.96
2018-09-22T10:16:07.778Z,16.78
2018-09-22T10:17:07.762Z,16.81
2018-09-22T10:18:07.750Z,17.02
2018-09-22T10:19:07.779Z,17.22
2018-09-22T10:20:07.781Z,17.36
2018-09-22T10:21:07.747Z,17.39
2018-09-22T10:22:07.731Z,17.29
2018-09-22T10:23:07.815Z,17.42
2018-09-22T10:24:07.691Z,17.65
2018-09-22T10:25:07.807Z,17.54
2018-09-22T10:26:07.971Z,17.33
2018-09-22T10:27:07.778Z,17.19
2018-09-22T10:28:07.825Z,17.33
2018-09-22T10:29:07.726Z,17.42
2018-09-22T10:30:07.626Z,17.42
2018-09-22T10:31:07.664Z,17.46
2018-09-22T10:32:07.600Z,17.63
2018-09-22T10:33:07.601Z,17.38
2018-09-22T10:34:07.598Z,17.38
2018-09-22T10:35:07.642Z,17.51
2018-09-22T10:36:07.585Z,17.30
2018-09-22T10:37:07.551Z,17.33
2018-09-22T10:38:07.534Z,17.42
2018-09-22T10:39:07.528Z,17.33
2018-09-22T10:40:07.519Z,17.33
2018-09-22T10:41:07.529Z,17.27
2018-09-22T10:42:07.540Z,17.23
2018-09-22T10:43:07.489Z,17.41
2018-09-22T10:44:07.475Z,17.57
2018-09-22T10:45:07.466Z,17.65
2018-09-22T10:46:07.447Z,17.64
2018-09-22T10:47:07.475Z,17.78
2018-09-22T10:48:07.434Z,17.51
2018-09-22T10:49:07.420Z,17.52
2018-09-22T10:50:07.413Z,17.56
2018-09-22T10:51:07.406Z,17.67
2018-09-22T10:52:07.388Z,17.65
2018-09-22T10:53:07.518Z,17.68
2018-09-22T10:54:07.369Z,17.82
2018-09-22T10:55:07.355Z,18.11
2018-09-22T10:56:07.389Z,18.29
2018-09-22T10:57:07.334Z,18.31
2018-09-22T10:58:07.328Z,18.43
2018-09-22T10:59:07.321Z,18.37
2018-09-22T11:00:07.307Z,18.28
2018-09-22T11:01:07.318Z,18.31
2018-09-22T11:02:07.293Z,18.29
2018-09-22T11:03:07.273Z,18.33
2018-09-22T11:04:07.261Z,18.41
2018-09-22T11:05:07.247Z,18.18
2018-09-22T11:06:07.264Z,18.10
2018-09-22T11:07:07.225Z,18.11
2018-09-22T11:08:07.219Z,18.16
2018-09-22T11:09:07.207Z,18.38
2018-09-22T11:10:07.199Z,18.40
2018-09-22T11:11:07.186Z,18.23
2018-09-22T11:12:07.192Z,18.20
2018-09-22T11:13:07.173Z,18.25
2018-09-22T11:14:07.147Z,18.18
2018-09-22T11:15:07.142Z,18.35
2018-09-22T11:16:07.153Z,18.59
2018-09-22T11:17:07.163Z,18.74
2018-09-22T11:18:07.113Z,18.59
2018-09-22T11:19:07.096Z,18.43
2018-09-22T11:20:07.086Z,18.25
2018-09-22T11:21:07.094Z,18.26
2018-09-22T11:22:07.067Z,18.19
2018-09-22T11:23:07.149Z,18.22
2018-09-22T11:24:07.044Z,18.26
2018-09-22T11:25:07.031Z,18.33
2018-09-22T11:26:07.035Z,18.41
2018-09-22T11:27:07.008Z,18.29
2018-09-22T11:28:06.999Z,18.40
2018-09-22T11:29:06.995Z,18.37
2018-09-22T11:30:06.981Z,18.26
2018-09-22T11:31:06.988Z,18.13
2018-09-22T11:32:06.958Z,17.97
2018-09-22T11:33:06.944Z,18.08
2018-09-22T11:34:06.932Z,17.97
2018-09-22T11:35:06.926Z,18.13
2018-09-22T11:36:06.937Z,18.11
2018-09-22T11:37:06.904Z,18.31
2018-09-22T11:38:06.889Z,18.23
2018-09-22T11:39:06.900Z,18.16
2018-09-22T11:40:06.871Z,18.25
2018-09-22T11:41:06.859Z,18.23
2018-09-22T11:42:06.868Z,18.25
2018-09-22T11:43:06.874Z,18.15
2018-09-22T11:44:06.828Z,17.87
2018-09-22T11:45:06.813Z,17.80
2018-09-22T11:46:06.853Z,17.79
2018-09-22T11:47:06.816Z,17.71
2018-09-22T11:48:06.787Z,17.85
2018-09-22T11:49:06.776Z,17.78
2018-09-22T11:50:06.766Z,17.80
2018-09-22T11:51:06.751Z,17.82
2018-09-22T11:52:06.760Z,17.63
2018-09-22T11:53:06.733Z,17.41
2018-09-22T11:54:06.724Z,17.24
2018-09-22T11:55:06.715Z,17.20
2018-09-22T11:56:06.717Z,17.39
2018-09-22T11:57:06.685Z,17.33
2018-09-22T11:58:06.679Z,17.27
2018-09-22T11:59:06.660Z,17.15
2018-09-22T12:00:06.652Z,17.31
2018-09-22T12:01:06.715Z,17.42
2018-09-22T12:02:06.646Z,17.39
2018-09-22T12:03:06.643Z,17.48
2018-09-22T12:04:06.615Z,17.52
2018-09-22T12:05:06.601Z,17.68
2018-09-22T12:06:06.682Z,18.03
2018-09-22T12:07:06.584Z,18.10
2018-09-22T12:08:06.590Z,18.13
2018-09-22T12:09:06.570Z,18.00
2018-09-22T12:10:06.546Z,18.18
2018-09-22T12:11:06.535Z,18.07
2018-09-22T12:12:06.527Z,18.03
2018-09-22T12:13:06.537Z,17.79
2018-09-22T12:14:06.537Z,17.86
2018-09-22T12:15:06.496Z,18.00
2018-09-22T12:16:06.510Z,18.08
2018-09-22T12:17:06.470Z,18.20
2018-09-22T12:18:06.476Z,18.10
2018-09-22T12:19:06.453Z,18.11
2018-09-22T12:20:06.441Z,17.97
2018-09-22T12:21:06.449Z,17.85
2018-09-22T12:22:06.426Z,18.07
2018-09-22T12:23:06.449Z,18.01
2018-09-22T12:24:06.396Z,17.83
2018-09-22T12:25:06.394Z,17.97
2018-09-22T12:26:06.417Z,18.16
2018-09-22T12:27:06.369Z,18.19
2018-09-22T12:28:06.373Z,18.25
2018-09-22T12:29:06.342Z,18.23
2018-09-22T12:30:06.336Z,18.13
2018-09-22T12:31:06.339Z,18.18
2018-09-22T12:32:06.312Z,18.18
2018-09-22T12:33:06.304Z,18.11
2018-09-22T12:34:06.300Z,18.04
2018-09-22T12:35:06.281Z,17.86
2018-09-22T12:36:06.284Z,17.89
2018-09-22T12:37:06.268Z,17.85
2018-09-22T12:38:06.246Z,17.98
2018-09-22T12:39:06.241Z,18.07
2018-09-22T12:40:06.230Z,18.08
2018-09-22T12:41:06.266Z,18.22
2018-09-22T12:42:06.200Z,18.50
2018-09-22T12:43:06.187Z,18.68
2018-09-22T12:44:06.192Z,18.59
2018-09-22T12:45:06.171Z,18.55
2018-09-22T12:46:06.195Z,18.16
2018-09-22T12:47:06.154Z,17.85
2018-09-22T12:48:06.139Z,17.52
2018-09-22T12:49:06.133Z,17.27
2018-09-22T12:50:06.113Z,17.06
2018-09-22T12:51:06.131Z,16.89
2018-09-22T12:52:06.093Z,16.96
2018-09-22T12:53:06.110Z,16.90
2018-09-22T12:54:06.078Z,16.87
2018-09-22T12:55:06.068Z,17.04
2018-09-22T12:56:06.053Z,17.06